Time;durP1;ratioP1;P1;durP2;ratioP2;P2;SDS_P1;SDS_P2;PMS_P1;PMS_P2;Temp;Humidity;BMP_temperature;BMP_pressure;BME280_temperature;BME280_humidity;BME280_pressure;Samples;Min_cycle;Max_cycle;Signal;HPM_P1;HPM_P2
2021/01/05 00:01:19;;;;;;;12.97;9.67;;;3.40;99.90;;;;;;5030522;28;20637;-67
2021/01/05 00:03:44;;;;;;;14.43;10.57;;;3.50;99.90;;;;;;5040840;28;20214;-67
2021/01/05 00:06:10;;;;;;;15.63;10.97;;;3.50;99.90;;;;;;5037802;28;20192;-66
2021/01/05 00:08:35;;;;;;;14.97;10.37;;;3.50;99.90;;;;;;5049197;28;20246;-66
2021/01/05 00:11:01;;;;;;;15.07;10.33;;;3.50;99.90;;;;;;5033767;28;20512;-66
2021/01/05 00:13:27;;;;;;;14.83;10.93;;;3.50;99.90;;;;;;5034672;28;20248;-66
2021/01/05 00:15:52;;;;;;;14.93;10.27;;;3.50;99.90;;;;;;5050331;28;20178;-66
2021/01/05 00:18:18;;;;;;;15.10;10.90;;;3.50;99.90;;;;;;5050116;28;20254;-66
2021/01/05 00:20:43;;;;;;;15.27;10.83;;;3.50;99.90;;;;;;5051813;28;20656;-67
2021/01/05 00:23:09;;;;;;;15.90;10.93;;;3.50;99.90;;;;;;5053622;28;20171;-67
2021/01/05 00:25:35;;;;;;;15.97;11.60;;;3.50;99.90;;;;;;5053874;28;20531;-67
2021/01/05 00:28:00;;;;;;;16.30;11.43;;;3.50;99.90;;;;;;5048895;28;20559;-67
2021/01/05 00:30:27;;;;;;;15.00;11.03;;;3.60;99.90;;;;;;5046188;28;20273;-66
2021/01/05 00:32:57;;;;;;;12.93;10.17;;;3.60;99.90;;;;;;5048093;28;20272;-67
2021/01/05 00:35:26;;;;;;;14.80;10.80;;;3.60;99.90;;;;;;5052064;28;20493;-66
2021/01/05 00:37:51;;;;;;;14.17;10.23;;;3.60;99.90;;;;;;5053453;28;20414;-67
2021/01/05 00:40:19;;;;;;;15.50;11.00;;;3.50;99.90;;;;;;5053339;28;20437;-67
2021/01/05 00:42:45;;;;;;;14.47;10.90;;;3.60;99.90;;;;;;5044894;28;20167;-66
2021/01/05 00:45:25;;;;;;;13.80;11.17;;;3.60;99.90;;;;;;5037729;28;20423;-67
2021/01/05 00:47:50;;;;;;;15.37;10.83;;;3.50;99.90;;;;;;5047808;28;20429;-67
2021/01/05 00:50:16;;;;;;;17.17;12.07;;;3.60;99.90;;;;;;5053324;28;20421;-65
2021/01/05 00:52:42;;;;;;;17.83;11.90;;;3.60;99.90;;;;;;5046205;28;20205;-66
2021/01/05 00:55:08;;;;;;;18.90;12.57;;;3.50;99.90;;;;;;5053195;28;20589;-67
2021/01/05 00:57:34;;;;;;;17.90;12.30;;;3.50;99.90;;;;;;5053033;28;20229;-66
2021/01/05 00:59:59;;;;;;;18.83;12.20;;;3.50;99.90;;;;;;5053262;28;20461;-67
2021/01/05 01:02:25;;;;;;;20.53;12.53;;;3.50;99.90;;;;;;5053071;28;21546;-67
2021/01/05 01:04:51;;;;;;;18.43;12.93;;;3.50;99.90;;;;;;5052760;28;20187;-67
2021/01/05 01:07:17;;;;;;;19.10;12.13;;;3.50;99.90;;;;;;5053105;28;20190;-66
2021/01/05 01:09:42;;;;;;;15.90;11.47;;;3.40;99.90;;;;;;5041481;28;20962;-67
2021/01/05 01:12:11;;;;;;;16.70;11.97;;;3.50;99.90;;;;;;5039460;28;20179;-65
2021/01/05 01:14:36;;;;;;;19.90;12.40;;;3.50;99.90;;;;;;5041539;28;20215;-63
2021/01/05 01:17:02;;;;;;;16.37;11.83;;;3.50;99.90;;;;;;5052748;28;20417;-66
2021/01/05 01:19:28;;;;;;;19.43;12.10;;;3.50;99.90;;;;;;5034255;28;20176;-66
2021/01/05 01:21:55;;;;;;;17.00;11.37;;;3.60;99.90;;;;;;5032661;28;20657;-66
2021/01/05 01:24:22;;;;;;;14.10;9.97;;;3.60;99.90;;;;;;5032724;28;20180;-65
2021/01/05 01:26:48;;;;;;;13.53;10.30;;;3.50;99.90;;;;;;5037820;28;20413;-66
2021/01/05 01:29:18;;;;;;;14.40;10.27;;;3.50;99.90;;;;;;5052275;28;20425;-65
2021/01/05 01:31:44;;;;;;;15.83;9.90;;;3.40;99.90;;;;;;5051928;28;20406;-65
2021/01/05 01:34:11;;;;;;;14.93;9.87;;;3.50;99.90;;;;;;5052250;28;20456;-66
2021/01/05 01:36:36;;;;;;;12.67;9.57;;;3.40;99.90;;;;;;5052431;28;20413;-66
2021/01/05 01:39:04;;;;;;;12.60;10.27;;;3.50;99.90;;;;;;5043110;28;20411;-67
2021/01/05 01:41:29;;;;;;;15.47;10.43;;;3.40;99.90;;;;;;5032412;28;20176;-66
2021/01/05 01:43:55;;;;;;;14.17;10.67;;;3.40;99.90;;;;;;5032085;28;20430;-66
2021/01/05 01:46:22;;;;;;;12.83;10.03;;;3.40;99.90;;;;;;5044421;28;20171;-65
2021/01/05 01:48:48;;;;;;;12.93;9.40;;;3.40;99.90;;;;;;5052119;28;20413;-66
2021/01/05 01:51:14;;;;;;;14.60;9.83;;;3.50;99.90;;;;;;5052033;28;20476;-66
2021/01/05 01:53:53;;;;;;;16.13;10.13;;;3.50;99.90;;;;;;5052072;28;20203;-66
2021/01/05 01:56:24;;;;;;;15.30;9.97;;;3.50;99.90;;;;;;5051941;28;20175;-67
2021/01/05 01:59:17;;;;;;;13.87;9.73;;;3.50;99.90;;;;;;5052068;28;20409;-67
2021/01/05 02:02:07;;;;;;;16.60;10.17;;;3.50;99.90;;;;;;5052063;28;20962;-66
2021/01/05 02:05:01;;;;;;;15.37;9.93;;;3.40;99.90;;;;;;5052086;28;20501;-66
2021/01/05 02:07:36;;;;;;;17.37;10.07;;;3.40;99.90;;;;;;5051686;28;20425;-65
2021/01/05 02:10:32;;;;;;;14.83;10.47;;;3.40;99.90;;;;;;5051728;28;20939;-66
2021/01/05 02:13:11;;;;;;;19.17;10.20;;;3.40;99.90;;;;;;5044990;28;20415;-66
2021/01/05 02:15:51;;;;;;;15.50;10.63;;;3.40;99.90;;;;;;5051757;28;20413;-65
2021/01/05 02:18:42;;;;;;;13.90;10.23;;;3.40;99.90;;;;;;5050418;28;20428;-65
2021/01/05 02:21:25;;;;;;;15.13;10.40;;;3.40;99.90;;;;;;5035816;28;20433;-66
2021/01/05 02:24:21;;;;;;;16.20;10.53;;;3.30;99.90;;;;;;5050081;28;20410;-65
2021/01/05 02:26:57;;;;;;;15.23;9.73;;;3.30;99.90;;;;;;5044738;28;20505;-67
2021/01/05 02:29:27;;;;;;;16.10;11.13;;;3.30;99.90;;;;;;5040284;28;20422;-66
2021/01/05 02:32:07;;;;;;;16.30;10.63;;;3.30;99.90;;;;;;5051196;28;20494;-64
2021/01/05 02:35:00;;;;;;;15.87;11.00;;;3.30;99.90;;;;;;5051258;28;20456;-66
2021/01/05 02:37:57;;;;;;;14.73;10.00;;;3.30;99.90;;;;;;5042938;28;20437;-66
2021/01/05 02:40:46;;;;;;;16.30;11.20;;;3.30;99.90;;;;;;5030323;28;20446;-66
2021/01/05 02:43:29;;;;;;;15.70;11.23;;;3.20;99.90;;;;;;5040246;28;20415;-66
2021/01/05 02:46:53;;;;;;;15.70;10.30;;;3.20;99.90;;;;;;5050030;28;20400;-68
2021/01/05 02:49:48;;;;;;;18.57;11.10;;;3.30;99.90;;;;;;5009154;28;20420;-65
2021/01/05 02:52:34;;;;;;;17.20;10.87;;;3.30;99.90;;;;;;5007178;28;20425;-67
2021/01/05 02:55:40;;;;;;;17.47;10.63;;;3.30;99.90;;;;;;4982194;28;20467;-64
2021/01/05 02:58:17;;;;;;;19.10;11.23;;;3.30;99.90;;;;;;5009181;28;20463;-65
2021/01/05 03:01:15;;;;;;;15.03;10.97;;;3.20;99.90;;;;;;5009170;28;20437;-66
2021/01/05 03:03:45;;;;;;;17.77;11.00;;;3.30;99.90;;;;;;4995088;28;20579;-66
2021/01/05 03:06:17;;;;;;;15.63;10.73;;;3.30;99.90;;;;;;5009245;28;20550;-66
2021/01/05 03:09:18;;;;;;;15.83;10.80;;;3.30;99.90;;;;;;5009378;28;20871;-65
2021/01/05 03:11:46;;;;;;;16.10;11.17;;;3.30;99.90;;;;;;5008984;28;20419;-66
2021/01/05 03:14:20;;;;;;;15.30;11.00;;;3.30;99.90;;;;;;4996584;28;20961;-65
2021/01/05 03:16:58;;;;;;;17.60;11.63;;;3.30;99.90;;;;;;4989440;28;20455;-67
2021/01/05 03:19:27;;;;;;;16.90;11.57;;;3.30;99.90;;;;;;4998340;28;20423;-66
2021/01/05 03:21:56;;;;;;;18.27;11.37;;;3.30;99.90;;;;;;5044825;28;20505;-67
2021/01/05 03:24:24;;;;;;;17.83;11.40;;;3.30;99.90;;;;;;5044120;28;20413;-67
2021/01/05 03:26:52;;;;;;;15.83;10.67;;;3.40;99.90;;;;;;5032360;28;20430;-65
2021/01/05 03:29:19;;;;;;;16.77;11.17;;;3.40;99.90;;;;;;5041822;28;20513;-65
2021/01/05 03:31:47;;;;;;;15.77;11.23;;;3.30;99.90;;;;;;5013330;28;20433;-66
2021/01/05 03:34:12;;;;;;;16.20;10.53;;;3.30;99.90;;;;;;5013076;28;20450;-65
2021/01/05 03:36:39;;;;;;;16.97;11.27;;;3.40;99.90;;;;;;5042511;28;20755;-66
2021/01/05 03:39:05;;;;;;;16.50;11.50;;;3.30;99.90;;;;;;5050502;28;20653;-65
2021/01/05 03:41:32;;;;;;;20.20;11.70;;;3.30;99.90;;;;;;5050524;28;20892;-65
2021/01/05 03:43:57;;;;;;;18.10;12.70;;;3.30;99.90;;;;;;5044912;28;20425;-65
2021/01/05 03:46:26;;;;;;;16.97;10.93;;;3.20;99.90;;;;;;5047828;28;20468;-67
2021/01/05 03:48:52;;;;;;;23.83;12.10;;;3.20;99.90;;;;;;5050454;28;20648;-68
2021/01/05 03:51:17;;;;;;;15.87;10.70;;;3.20;99.90;;;;;;5044922;28;20736;-65
2021/01/05 03:53:43;;;;;;;16.87;11.10;;;3.20;99.90;;;;;;5050658;28;20456;-65
2021/01/05 03:56:09;;;;;;;17.17;11.10;;;3.20;99.90;;;;;;5054258;28;20611;-65
2021/01/05 03:58:35;;;;;;;18.80;11.43;;;3.20;99.90;;;;;;5047387;28;20176;-66
2021/01/05 04:01:01;;;;;;;18.07;11.73;;;3.20;99.90;;;;;;5052330;28;20275;-67
2021/01/05 04:03:27;;;;;;;16.90;11.57;;;3.20;99.90;;;;;;5047850;28;20245;-66
2021/01/05 04:05:53;;;;;;;17.57;11.67;;;3.20;99.90;;;;;;5039541;28;20944;-65
2021/01/05 04:08:18;;;;;;;15.10;10.70;;;3.10;99.90;;;;;;5037719;28;20458;-65
2021/01/05 04:10:44;;;;;;;18.03;12.10;;;3.20;99.90;;;;;;5053998;28;20194;-66
2021/01/05 04:13:10;;;;;;;17.17;11.00;;;3.20;99.90;;;;;;5053898;28;20703;-66
2021/01/05 04:15:35;;;;;;;19.90;11.50;;;3.20;99.90;;;;;;5054180;28;20245;-67
2021/01/05 04:18:02;;;;;;;16.33;10.90;;;3.20;99.90;;;;;;5053811;28;20185;-66
2021/01/05 04:20:30;;;;;;;17.77;11.23;;;3.20;99.90;;;;;;5049959;28;20184;-65
2021/01/05 04:22:57;;;;;;;17.50;11.23;;;3.20;99.90;;;;;;5052693;28;20474;-67
2021/01/05 04:25:22;;;;;;;17.27;10.93;;;3.20;99.90;;;;;;5053846;28;20449;-65
2021/01/05 04:27:49;;;;;;;19.60;11.70;;;3.20;99.90;;;;;;5053920;28;20471;-64
2021/01/05 04:30:20;;;;;;;16.87;11.37;;;3.20;99.90;;;;;;5049711;28;20221;-65
2021/01/05 04:32:46;;;;;;;19.17;10.50;;;3.20;99.90;;;;;;5053900;28;20452;-66
2021/01/05 04:35:13;;;;;;;17.67;11.57;;;3.10;99.90;;;;;;5043134;28;20545;-65
2021/01/05 04:37:39;;;;;;;17.03;11.07;;;3.20;99.90;;;;;;5033664;28;20457;-66
2021/01/05 04:40:06;;;;;;;17.10;11.30;;;3.20;99.90;;;;;;5033634;28;20827;-65
2021/01/05 04:42:35;;;;;;;17.60;11.67;;;3.10;99.90;;;;;;5033566;28;20258;-64
2021/01/05 04:45:09;;;;;;;18.70;10.90;;;3.10;99.90;;;;;;5046022;28;20921;-67
2021/01/05 04:47:55;;;;;;;17.60;11.83;;;3.10;99.90;;;;;;5052527;28;20421;-65
2021/01/05 04:50:48;;;;;;;19.83;11.63;;;3.20;99.90;;;;;;5036411;28;20449;-66
2021/01/05 04:53:42;;;;;;;17.40;11.07;;;3.20;99.90;;;;;;5041711;28;20454;-64
2021/01/05 04:56:12;;;;;;;16.33;9.87;;;3.20;99.90;;;;;;5052354;28;20417;-67
2021/01/05 04:58:41;;;;;;;17.13;11.30;;;3.20;99.90;;;;;;5053017;28;20448;-65
2021/01/05 05:01:15;;;;;;;19.47;11.90;;;3.20;99.90;;;;;;5053190;28;20476;-66
2021/01/05 05:04:11;;;;;;;20.63;10.80;;;3.20;99.90;;;;;;5053214;28;20417;-66
2021/01/05 05:06:57;;;;;;;16.57;10.53;;;3.10;99.90;;;;;;5052432;28;20899;-65
2021/01/05 05:09:47;;;;;;;19.63;10.40;;;3.00;99.90;;;;;;5052960;28;20441;-66
2021/01/05 05:12:17;;;;;;;17.03;11.23;;;3.00;99.90;;;;;;5052265;28;20406;-66
2021/01/05 05:14:50;;;;;;;16.37;10.40;;;3.10;99.90;;;;;;5052594;28;20446;-65
2021/01/05 05:17:53;;;;;;;15.70;10.77;;;3.10;99.90;;;;;;5052639;28;20418;-66
2021/01/05 05:20:46;;;;;;;19.27;11.17;;;3.10;99.90;;;;;;5021721;28;20467;-67
2021/01/05 05:23:29;;;;;;;16.13;10.50;;;3.20;99.90;;;;;;5052486;28;20763;-66
2021/01/05 05:26:18;;;;;;;16.87;10.50;;;3.00;99.90;;;;;;5052646;28;20912;-66
2021/01/05 05:29:22;;;;;;;15.73;10.33;;;3.00;99.90;;;;;;5052174;28;20902;-67
2021/01/05 05:31:49;;;;;;;16.70;10.80;;;3.00;99.90;;;;;;5050974;28;20414;-66
2021/01/05 05:34:26;;;;;;;15.57;10.20;;;3.00;99.90;;;;;;5052436;28;20966;-67
2021/01/05 05:37:09;;;;;;;18.03;10.93;;;3.00;99.90;;;;;;5052787;28;20853;-67
2021/01/05 05:39:57;;;;;;;20.53;11.77;;;3.00;99.90;;;;;;5051223;28;20406;-65
2021/01/05 05:42:49;;;;;;;19.50;11.17;;;3.00;99.90;;;;;;5051825;28;20410;-67
2021/01/05 05:45:27;;;;;;;21.20;11.77;;;3.00;99.90;;;;;;5051967;28;20417;-65
2021/01/05 05:48:02;;;;;;;17.37;11.27;;;3.10;99.90;;;;;;5052237;28;20445;-64
2021/01/05 05:51:07;;;;;;;18.23;10.73;;;3.20;99.90;;;;;;5052121;28;20428;-66
2021/01/05 05:53:45;;;;;;;16.30;10.03;;;3.10;99.90;;;;;;5050944;28;20492;-66
2021/01/05 05:56:14;;;;;;;17.43;10.43;;;3.00;99.90;;;;;;5052076;28;20907;-66
2021/01/05 05:58:52;;;;;;;20.30;10.97;;;3.10;99.90;;;;;;5052009;28;20467;-65
2021/01/05 06:01:25;;;;;;;19.77;11.63;;;3.00;99.90;;;;;;5051109;28;20443;-65
2021/01/05 06:03:52;;;;;;;18.50;10.90;;;3.10;99.90;;;;;;5051986;28;20488;-66
2021/01/05 06:06:19;;;;;;;17.63;11.10;;;3.10;99.90;;;;;;5043140;28;20425;-66
2021/01/05 06:08:44;;;;;;;19.07;11.50;;;3.10;99.90;;;;;;5032161;28;20537;-67
2021/01/05 06:11:10;;;;;;;18.17;11.13;;;3.20;99.90;;;;;;5043106;28;20425;-65
2021/01/05 06:13:36;;;;;;;19.20;11.40;;;3.20;99.90;;;;;;5032168;28;20207;-66
2021/01/05 06:16:02;;;;;;;19.83;11.30;;;3.20;99.90;;;;;;5051362;28;20528;-67
2021/01/05 06:18:28;;;;;;;19.77;12.20;;;3.10;99.90;;;;;;5051088;28;20178;-65
2021/01/05 06:20:53;;;;;;;19.30;11.83;;;3.00;99.90;;;;;;5051661;28;20438;-65
2021/01/05 06:23:19;;;;;;;18.30;11.47;;;2.90;99.90;;;;;;5051315;28;20171;-66
2021/01/05 06:25:46;;;;;;;17.67;11.27;;;3.00;99.90;;;;;;5051419;28;20174;-66
2021/01/05 06:28:12;;;;;;;18.57;11.60;;;3.00;99.90;;;;;;5051374;28;20182;-65
2021/01/05 06:30:38;;;;;;;20.47;11.73;;;3.00;99.90;;;;;;5051547;28;20406;-66
2021/01/05 06:33:04;;;;;;;18.33;12.10;;;3.00;99.90;;;;;;5051214;28;20420;-67
2021/01/05 06:35:29;;;;;;;17.17;10.67;;;3.00;99.90;;;;;;5041790;28;20180;-64
2021/01/05 06:37:55;;;;;;;21.17;11.63;;;3.00;99.90;;;;;;5051350;28;20183;-65
2021/01/05 06:40:23;;;;;;;19.87;11.10;;;3.00;99.90;;;;;;5043626;28;20186;-66
2021/01/05 06:42:49;;;;;;;18.50;11.37;;;3.00;99.90;;;;;;5031374;28;20183;-66
2021/01/05 06:45:20;;;;;;;17.77;10.63;;;3.00;99.90;;;;;;5031423;28;20418;-64
2021/01/05 06:47:45;;;;;;;16.83;11.07;;;3.00;99.90;;;;;;5039933;28;20416;-67
2021/01/05 06:50:12;;;;;;;17.90;11.73;;;2.90;99.90;;;;;;5051174;28;20413;-68
2021/01/05 06:52:37;;;;;;;17.50;10.60;;;2.90;99.90;;;;;;5051022;28;20630;-65
2021/01/05 06:55:03;;;;;;;18.10;11.00;;;2.90;99.90;;;;;;5051071;28;20489;-65
2021/01/05 06:57:29;;;;;;;17.13;10.77;;;2.90;99.90;;;;;;5038303;28;20561;-67
2021/01/05 06:59:54;;;;;;;18.37;11.00;;;3.00;99.90;;;;;;5045829;28;20417;-66
2021/01/05 07:02:20;;;;;;;18.47;10.30;;;3.00;99.90;;;;;;5048366;28;20307;-65
2021/01/05 07:04:46;;;;;;;18.07;10.63;;;2.90;99.90;;;;;;5050857;28;20182;-66
2021/01/05 07:07:12;;;;;;;20.63;11.30;;;3.00;99.90;;;;;;5050746;28;20214;-66
2021/01/05 07:09:37;;;;;;;16.87;9.83;;;3.00;99.90;;;;;;5049512;28;20241;-66
2021/01/05 07:12:04;;;;;;;19.83;10.90;;;2.90;99.90;;;;;;5050819;28;20174;-66
2021/01/05 07:14:29;;;;;;;17.77;10.80;;;2.90;99.90;;;;;;5030949;28;20211;-66
2021/01/05 07:16:55;;;;;;;17.23;10.63;;;2.90;99.90;;;;;;5042614;28;21060;-67
2021/01/05 07:19:21;;;;;;;14.60;9.73;;;3.00;99.90;;;;;;5050504;28;20176;-64
2021/01/05 07:21:46;;;;;;;15.57;10.87;;;3.10;99.90;;;;;;5047416;28;20175;-65
2021/01/05 07:24:12;;;;;;;17.57;11.17;;;3.00;99.90;;;;;;5035907;28;20187;-65
2021/01/05 07:26:42;;;;;;;21.53;11.20;;;2.90;99.90;;;;;;5040804;28;20550;-65
2021/01/05 07:29:11;;;;;;;21.17;10.83;;;3.00;99.90;;;;;;5053364;28;20923;-66
2021/01/05 07:31:36;;;;;;;16.33;10.03;;;3.00;99.90;;;;;;5032557;28;20932;-65
2021/01/05 07:34:02;;;;;;;16.17;10.70;;;3.00;99.90;;;;;;5054350;28;20576;-65
2021/01/05 07:36:43;;;;;;;18.77;10.17;;;3.10;99.90;;;;;;5053704;28;20175;-65
2021/01/05 07:39:19;;;;;;;17.70;10.40;;;3.10;99.90;;;;;;5053558;28;20167;-65
2021/01/05 07:41:45;;;;;;;18.67;11.03;;;3.10;99.90;;;;;;5046733;28;20422;-67
2021/01/05 07:44:11;;;;;;;17.37;9.87;;;3.10;99.90;;;;;;5041533;28;20461;-66
2021/01/05 07:46:36;;;;;;;14.60;10.63;;;3.00;99.90;;;;;;5043463;28;20871;-66
2021/01/05 07:49:02;;;;;;;15.70;10.27;;;3.10;99.90;;;;;;5053921;28;20248;-64
2021/01/05 07:51:28;;;;;;;16.70;10.17;;;3.10;99.90;;;;;;5054586;28;20183;-64
2021/01/05 07:53:53;;;;;;;15.67;10.73;;;3.10;99.90;;;;;;5054051;28;20276;-67
2021/01/05 07:56:19;;;;;;;16.97;10.13;;;3.10;99.90;;;;;;5053937;28;20182;-64
2021/01/05 07:58:44;;;;;;;17.27;10.37;;;3.10;99.90;;;;;;5054229;28;20171;-66
2021/01/05 08:01:10;;;;;;;15.87;10.37;;;3.10;99.90;;;;;;5051229;28;20660;-65
2021/01/05 08:03:35;;;;;;;15.23;10.27;;;3.20;99.90;;;;;;5052998;28;20695;-65
2021/01/05 08:06:05;;;;;;;17.40;10.40;;;3.10;99.90;;;;;;5053916;28;20252;-64
2021/01/05 08:08:30;;;;;;;16.70;10.07;;;3.10;99.90;;;;;;5054471;28;20175;-63
2021/01/05 08:10:56;;;;;;;15.60;10.60;;;3.10;99.90;;;;;;5054063;28;20927;-65
2021/01/05 08:13:22;;;;;;;14.37;9.97;;;3.10;99.90;;;;;;5053859;28;20542;-66
2021/01/05 08:15:47;;;;;;;16.73;10.13;;;3.10;99.90;;;;;;5053892;28;20190;-66
2021/01/05 08:18:13;;;;;;;16.90;10.63;;;3.20;99.90;;;;;;5053643;28;20266;-65
2021/01/05 08:20:39;;;;;;;17.47;9.67;;;3.10;99.90;;;;;;5053774;28;20229;-66
2021/01/05 08:23:05;;;;;;;15.67;9.87;;;3.10;99.90;;;;;;5053707;28;20417;-65
2021/01/05 08:25:32;;;;;;;17.43;11.23;;;3.20;99.90;;;;;;5053808;28;20178;-66
2021/01/05 08:27:58;;;;;;;15.97;10.60;;;3.10;99.90;;;;;;5053658;28;20186;-64
2021/01/05 08:30:27;;;;;;;15.57;10.27;;;3.10;99.90;;;;;;5053612;28;20934;-65
2021/01/05 08:32:54;;;;;;;15.07;9.67;;;3.10;99.90;;;;;;5035274;28;20459;-64
2021/01/05 08:35:22;;;;;;;14.70;10.33;;;3.20;99.90;;;;;;5053169;28;20487;-65
2021/01/05 08:37:48;;;;;;;14.97;9.73;;;3.20;99.90;;;;;;5053302;28;20425;-66
2021/01/05 08:40:17;;;;;;;17.60;10.47;;;3.30;99.90;;;;;;5052194;28;20417;-66
2021/01/05 08:42:43;;;;;;;16.53;10.57;;;3.30;99.90;;;;;;5053053;28;20259;-64
2021/01/05 08:45:09;;;;;;;16.40;10.27;;;3.30;99.90;;;;;;5053099;28;20521;-64
2021/01/05 08:47:35;;;;;;;15.53;9.40;;;3.30;99.90;;;;;;5052792;28;20260;-64
2021/01/05 08:50:01;;;;;;;15.10;9.40;;;3.40;99.90;;;;;;5053558;28;20425;-65
2021/01/05 08:52:27;;;;;;;14.13;9.63;;;3.40;99.90;;;;;;5053041;28;20661;-64
2021/01/05 08:54:52;;;;;;;14.30;9.83;;;3.40;99.90;;;;;;5053048;28;20575;-64
2021/01/05 08:57:18;;;;;;;13.47;9.73;;;3.50;99.90;;;;;;5053020;28;20179;-64
2021/01/05 08:59:47;;;;;;;14.53;9.73;;;3.40;99.90;;;;;;5052940;28;20175;-65
2021/01/05 09:02:13;;;;;;;14.60;9.77;;;3.40;99.90;;;;;;5053014;28;20569;-65
2021/01/05 09:04:39;;;;;;;15.50;10.47;;;3.30;99.90;;;;;;5053008;28;20463;-63
2021/01/05 09:07:05;;;;;;;18.07;9.97;;;3.40;99.90;;;;;;5052797;28;20179;-64
2021/01/05 09:09:31;;;;;;;14.83;10.27;;;3.40;99.90;;;;;;5053095;28;20517;-63
2021/01/05 09:11:58;;;;;;;14.97;9.50;;;3.40;99.90;;;;;;5052717;28;20418;-64
2021/01/05 09:14:25;;;;;;;17.17;10.33;;;3.30;99.90;;;;;;5052746;28;20221;-64
2021/01/05 09:16:58;;;;;;;16.10;10.53;;;3.30;99.90;;;;;;5052545;28;20429;-63
2021/01/05 09:19:25;;;;;;;16.53;10.03;;;3.30;99.90;;;;;;5052675;28;20414;-62
2021/01/05 09:21:51;;;;;;;18.97;10.30;;;3.40;99.90;;;;;;5052900;28;20425;-66
2021/01/05 09:24:17;;;;;;;14.93;9.40;;;3.40;99.90;;;;;;5052806;28;20413;-65
2021/01/05 09:26:44;;;;;;;17.40;10.20;;;3.40;99.90;;;;;;5052561;28;20436;-63
2021/01/05 09:29:11;;;;;;;14.87;9.77;;;3.50;99.90;;;;;;5052458;28;20183;-63
2021/01/05 09:31:45;;;;;;;15.90;10.57;;;3.60;99.90;;;;;;5052523;28;20428;-64
2021/01/05 09:34:13;;;;;;;15.17;11.00;;;3.60;99.90;;;;;;5052347;28;20449;-65
2021/01/05 09:36:39;;;;;;;21.10;10.87;;;3.60;99.90;;;;;;5052685;28;20422;-65
2021/01/05 09:39:08;;;;;;;16.00;10.47;;;3.50;99.90;;;;;;5052313;28;20416;-65
2021/01/05 09:41:40;;;;;;;16.60;10.87;;;3.40;99.90;;;;;;5052408;28;20413;-64
2021/01/05 09:44:07;;;;;;;18.93;10.37;;;3.40;99.90;;;;;;5052075;28;20437;-65
2021/01/05 09:46:33;;;;;;;15.77;10.93;;;3.50;99.90;;;;;;5052337;28;20925;-64
2021/01/05 09:48:58;;;;;;;17.47;11.50;;;3.60;99.90;;;;;;5052165;28;20422;-64
2021/01/05 09:51:27;;;;;;;17.67;11.00;;;3.60;99.90;;;;;;5050371;28;20183;-63
2021/01/05 09:53:53;;;;;;;16.70;11.33;;;3.60;99.90;;;;;;5039406;28;20590;-66
2021/01/05 09:56:19;;;;;;;17.97;12.00;;;3.70;99.90;;;;;;5031796;28;20411;-63
2021/01/05 09:58:51;;;;;;;20.03;13.00;;;3.70;99.90;;;;;;5050813;28;20191;-64
2021/01/05 10:01:26;;;;;;;23.50;13.67;;;3.60;99.90;;;;;;5051511;28;20447;-65
2021/01/05 10:03:51;;;;;;;23.90;13.37;;;3.70;99.90;;;;;;5051904;28;20178;-66
2021/01/05 10:06:17;;;;;;;22.17;14.00;;;3.60;99.90;;;;;;5051745;28;20911;-66
2021/01/05 10:08:55;;;;;;;19.43;13.13;;;3.60;99.90;;;;;;5050085;28;20171;-66
2021/01/05 10:11:21;;;;;;;21.37;13.00;;;3.60;99.90;;;;;;5051134;28;20610;-63
2021/01/05 10:13:46;;;;;;;20.30;12.27;;;3.60;99.90;;;;;;5031627;28;20450;-63
2021/01/05 10:16:12;;;;;;;18.37;12.13;;;3.70;99.90;;;;;;5046585;28;20178;-66
2021/01/05 10:18:38;;;;;;;20.10;12.77;;;3.60;99.90;;;;;;5051696;28;20629;-65
2021/01/05 10:21:04;;;;;;;17.30;11.73;;;3.60;99.90;;;;;;5051597;28;20626;-64
2021/01/05 10:23:29;;;;;;;19.57;12.33;;;3.60;99.90;;;;;;5051581;28;20175;-66
2021/01/05 10:25:55;;;;;;;20.07;12.27;;;3.70;99.90;;;;;;5047947;28;20172;-65
2021/01/05 10:28:20;;;;;;;19.03;13.10;;;3.70;99.90;;;;;;5031556;28;20179;-64
2021/01/05 10:30:46;;;;;;;17.63;11.77;;;3.60;99.90;;;;;;5036804;28;20182;-64
2021/01/05 10:33:12;;;;;;;19.00;11.77;;;3.80;99.90;;;;;;5051343;28;20180;-64
2021/01/05 10:35:37;;;;;;;18.93;11.30;;;3.80;99.90;;;;;;5051365;28;20245;-66
2021/01/05 10:38:03;;;;;;;18.50;11.17;;;3.80;99.90;;;;;;5049781;28;20175;-64
2021/01/05 10:40:29;;;;;;;21.47;12.47;;;3.80;99.90;;;;;;5051323;28;20175;-67
2021/01/05 10:42:54;;;;;;;21.27;12.27;;;3.80;99.90;;;;;;5050948;28;20175;-66
2021/01/05 10:45:23;;;;;;;17.70;12.27;;;3.70;99.90;;;;;;5051305;28;20179;-67
2021/01/05 10:47:49;;;;;;;17.97;12.60;;;3.80;99.90;;;;;;5050927;28;20179;-66
2021/01/05 10:50:18;;;;;;;18.73;13.07;;;3.80;99.90;;;;;;5051153;28;20453;-66
2021/01/05 10:52:47;;;;;;;19.30;11.67;;;3.80;99.90;;;;;;5051069;28;20807;-64
2021/01/05 10:55:14;;;;;;;21.67;13.47;;;3.80;99.90;;;;;;5045474;28;20539;-66
2021/01/05 10:57:41;;;;;;;22.23;12.97;;;3.80;99.90;;;;;;5051211;28;20512;-66
2021/01/05 11:00:08;;;;;;;21.13;13.60;;;3.90;99.90;;;;;;5051238;28;20421;-63
2021/01/05 11:02:33;;;;;;;22.13;14.10;;;3.80;99.90;;;;;;5045101;28;20442;-67
2021/01/05 11:05:00;;;;;;;19.37;13.13;;;3.90;99.90;;;;;;5040985;28;20460;-66
2021/01/05 11:07:26;;;;;;;21.33;13.50;;;3.80;99.90;;;;;;5041706;28;20198;-66
2021/01/05 11:09:51;;;;;;;22.53;13.93;;;3.90;99.90;;;;;;5023938;28;20533;-67
2021/01/05 11:12:25;;;;;;;21.33;14.47;;;3.90;99.90;;;;;;5042417;28;20182;-66
2021/01/05 11:14:51;;;;;;;21.07;12.83;;;3.90;99.90;;;;;;5048972;28;20214;-66
2021/01/05 11:17:17;;;;;;;19.87;13.13;;;4.10;99.90;;;;;;5048776;28;20493;-67
2021/01/05 11:19:43;;;;;;;24.50;15.07;;;4.10;99.90;;;;;;5042964;28;20171;-67
2021/01/05 11:22:14;;;;;;;24.23;14.67;;;4.10;99.90;;;;;;5051019;28;20247;-65
2021/01/05 11:24:40;;;;;;;23.97;14.80;;;4.10;99.90;;;;;;5047959;28;20188;-65
2021/01/05 11:27:07;;;;;;;23.40;14.50;;;3.90;99.90;;;;;;5048310;28;20426;-64
2021/01/05 11:29:34;;;;;;;24.73;15.30;;;4.00;99.90;;;;;;5050601;28;20415;-66
2021/01/05 11:32:06;;;;;;;24.23;15.30;;;4.00;99.90;;;;;;5033832;28;20569;-66
2021/01/05 11:34:32;;;;;;;21.83;14.17;;;4.00;99.90;;;;;;5049369;28;20548;-65
2021/01/05 11:37:12;;;;;;;22.20;14.03;;;4.00;99.90;;;;;;5050367;28;20414;-66
2021/01/05 11:39:42;;;;;;;24.13;15.50;;;4.00;99.90;;;;;;5050406;28;20447;-67
2021/01/05 11:42:08;;;;;;;24.80;14.70;;;3.90;99.90;;;;;;5050434;28;20417;-65
2021/01/05 11:44:34;;;;;;;25.47;14.70;;;4.00;99.90;;;;;;5040643;28;20779;-65
2021/01/05 11:46:59;;;;;;;25.90;15.70;;;4.00;99.90;;;;;;5050401;28;20432;-65
2021/01/05 11:49:25;;;;;;;27.60;15.80;;;4.00;99.90;;;;;;5050219;28;20202;-66
2021/01/05 11:51:53;;;;;;;21.90;14.23;;;4.00;99.90;;;;;;5050529;28;20202;-65
2021/01/05 11:54:20;;;;;;;23.47;15.67;;;4.00;99.90;;;;;;5050318;28;20493;-65
2021/01/05 11:56:46;;;;;;;23.20;15.27;;;4.10;99.90;;;;;;5050435;28;20445;-64
2021/01/05 11:59:12;;;;;;;21.63;15.27;;;4.10;99.90;;;;;;5050263;28;20517;-66
2021/01/05 12:01:39;;;;;;;23.43;14.93;;;4.10;99.90;;;;;;5050507;28;20418;-67
2021/01/05 12:04:06;;;;;;;27.40;17.73;;;4.00;99.90;;;;;;5050162;28;20471;-62
2021/01/05 12:06:31;;;;;;;23.63;14.60;;;4.00;99.90;;;;;;5050163;28;20449;-63
2021/01/05 12:08:57;;;;;;;22.77;14.13;;;3.90;99.90;;;;;;5031052;28;20472;-65
2021/01/05 12:11:29;;;;;;;24.53;15.87;;;4.00;99.90;;;;;;5030348;28;20241;-64
2021/01/05 12:13:55;;;;;;;24.27;15.17;;;4.00;99.90;;;;;;5031638;28;20203;-63
2021/01/05 12:16:39;;;;;;;22.37;15.30;;;4.10;99.90;;;;;;5049394;28;20419;-64
2021/01/05 12:19:27;;;;;;;26.73;15.03;;;4.00;99.90;;;;;;5053352;28;20472;-64
2021/01/05 12:21:59;;;;;;;23.30;14.57;;;3.90;99.90;;;;;;5053200;28;20457;-65
2021/01/05 12:24:30;;;;;;;25.20;15.63;;;3.90;99.90;;;;;;5053598;28;20418;-63
2021/01/05 12:27:00;;;;;;;22.87;14.53;;;3.90;99.90;;;;;;5053985;28;20904;-64
2021/01/05 12:29:28;;;;;;;19.23;13.47;;;3.90;99.90;;;;;;5053720;28;20479;-67
2021/01/05 12:31:55;;;;;;;21.90;14.43;;;3.90;99.90;;;;;;5053766;28;20413;-65
2021/01/05 12:34:29;;;;;;;25.30;15.13;;;4.00;99.90;;;;;;5053493;28;20456;-65
2021/01/05 12:36:55;;;;;;;21.80;14.80;;;4.00;99.90;;;;;;5053394;28;20459;-64
2021/01/05 12:39:24;;;;;;;25.87;15.67;;;3.90;99.90;;;;;;5053196;28;20979;-66
2021/01/05 12:41:57;;;;;;;26.13;15.70;;;3.90;99.90;;;;;;5053381;28;20637;-63
2021/01/05 12:44:27;;;;;;;23.53;14.70;;;4.00;99.90;;;;;;5053247;28;20429;-65
2021/01/05 12:46:53;;;;;;;23.33;14.17;;;3.90;99.90;;;;;;5053194;28;20421;-64
2021/01/05 12:49:20;;;;;;;22.97;15.17;;;3.90;99.90;;;;;;5053260;28;20444;-65
2021/01/05 12:51:47;;;;;;;24.03;15.53;;;3.90;99.90;;;;;;5053217;28;20421;-66
2021/01/05 12:54:16;;;;;;;23.53;14.67;;;4.00;99.90;;;;;;5053292;28;20510;-63